Time;durP1;ratioP1;P1;durP2;ratioP2;P2;SDS_P1;SDS_P2;PMS_P1;PMS_P2;Temp;Humidity;BMP_temperature;BMP_pressure;BME280_temperature;BME280_humidity;BME280_pressure;Samples;Min_cycle;Max_cycle;Signal;HPM_P1;HPM_P2
2023/07/12 00:00:28;;;;;;;10.30;6.93;;;;;;;;;;5015150;28;20485;-56
2023/07/12 00:02:53;;;;;;;9.05;6.03;;;;;;;;;;5013887;28;20304;-56
2023/07/12 00:05:19;;;;;;;9.90;7.20;;;;;;;;;;5031441;28;20098;-57
2023/07/12 00:07:47;;;;;;;7.75;6.25;;;;;;;;;;5028199;28;20635;-56
2023/07/12 00:10:16;;;;;;;8.98;6.47;;;;;;;;;;5028970;28;20037;-57
2023/07/12 00:12:41;;;;;;;9.57;6.70;;;;;;;;;;5034286;28;20041;-57
2023/07/12 00:15:09;;;;;;;10.60;6.70;;;;;;;;;;5026197;28;20030;-56
2023/07/12 00:17:34;;;;;;;10.50;6.90;;;;;;;;;;5027127;23;20672;-57
2023/07/12 00:19:59;;;;;;;11.37;6.57;;;;;;;;;;4990637;28;20105;-57
2023/07/12 00:22:25;;;;;;;8.85;6.82;;;;;;;;;;4998280;28;20085;-56
2023/07/12 00:24:50;;;;;;;10.63;6.40;;;;;;;;;;4987950;28;20513;-57
2023/07/12 00:27:15;;;;;;;11.07;6.90;;;;;;;;;;4985648;28;20038;-56
2023/07/12 00:29:40;;;;;;;9.53;6.70;;;;;;;;;;4985881;28;20301;-57
2023/07/12 00:32:07;;;;;;;9.10;6.10;;;;;;;;;;4986082;28;20070;-57
2023/07/12 00:34:32;;;;;;;10.35;6.72;;;;;;;;;;4989921;28;20124;-57
2023/07/12 00:36:57;;;;;;;11.10;6.77;;;;;;;;;;5005292;28;20471;-57
2023/07/12 00:39:22;;;;;;;9.40;6.60;;;;;;;;;;4987683;28;20273;-57
2023/07/12 00:41:54;;;;;;;9.50;6.93;;;;;;;;;;5002174;28;20379;-57
2023/07/12 00:44:23;;;;;;;10.00;6.57;;;;;;;;;;4993601;28;20065;-57
2023/07/12 00:46:49;;;;;;;11.23;6.80;;;;;;;;;;5003876;28;20073;-56
2023/07/12 00:49:14;;;;;;;11.18;7.10;;;;;;;;;;4986557;28;20052;-57
2023/07/12 00:51:51;;;;;;;9.60;6.57;;;;;;;;;;5002100;28;20041;-57
2023/07/12 00:54:18;;;;;;;10.27;6.72;;;;;;;;;;4986767;28;20049;-57
2023/07/12 00:56:43;;;;;;;13.35;7.30;;;;;;;;;;5004782;28;20057;-57
2023/07/12 00:59:13;;;;;;;8.57;6.97;;;;;;;;;;5004871;28;20497;-56
2023/07/12 01:01:38;;;;;;;11.90;7.22;;;;;;;;;;5005007;28;20355;-57
2023/07/12 01:04:04;;;;;;;10.48;6.95;;;;;;;;;;4986021;28;20510;-57
2023/07/12 01:06:29;;;;;;;8.80;6.38;;;;;;;;;;4967716;28;20088;-57
2023/07/12 01:08:55;;;;;;;7.90;6.57;;;;;;;;;;4986294;28;20117;-57
2023/07/12 01:11:21;;;;;;;8.75;6.65;;;;;;;;;;5003270;28;20270;-56
2023/07/12 01:13:47;;;;;;;10.68;6.85;;;;;;;;;;4981218;28;20058;-57
2023/07/12 01:16:13;;;;;;;11.63;7.32;;;;;;;;;;4984009;28;20109;-57
2023/07/12 01:18:38;;;;;;;10.30;6.95;;;;;;;;;;4983975;28;20517;-56
2023/07/12 01:21:04;;;;;;;8.57;6.82;;;;;;;;;;5006630;28;20045;-57
2023/07/12 01:23:30;;;;;;;7.75;6.65;;;;;;;;;;5011223;28;20623;-56
2023/07/12 01:26:12;;;;;;;9.10;6.85;;;;;;;;;;5004726;28;20030;-57
2023/07/12 01:28:37;;;;;;;9.30;6.63;;;;;;;;;;5002798;28;20129;-56
2023/07/12 01:31:02;;;;;;;11.47;6.97;;;;;;;;;;5009016;28;20030;-57
2023/07/12 01:33:28;;;;;;;9.93;6.80;;;;;;;;;;4987150;28;20034;-57
2023/07/12 01:35:53;;;;;;;11.43;7.20;;;;;;;;;;5004873;28;20103;-57
2023/07/12 01:38:18;;;;;;;9.17;7.13;;;;;;;;;;5004813;28;20445;-57
2023/07/12 01:40:43;;;;;;;10.27;6.93;;;;;;;;;;5004820;28;20034;-57
2023/07/12 01:43:09;;;;;;;10.70;6.87;;;;;;;;;;4991592;28;20045;-57
2023/07/12 01:45:34;;;;;;;7.27;6.47;;;;;;;;;;4998930;28;20411;-57
2023/07/12 01:48:00;;;;;;;9.03;7.23;;;;;;;;;;5003429;28;20433;-57
2023/07/12 01:50:26;;;;;;;9.68;7.00;;;;;;;;;;5004686;28;20041;-56
2023/07/12 01:52:51;;;;;;;11.20;7.10;;;;;;;;;;4999387;28;20023;-57
2023/07/12 01:55:16;;;;;;;11.37;6.63;;;;;;;;;;4988009;28;20231;-56
2023/07/12 01:57:41;;;;;;;8.83;6.90;;;;;;;;;;5001454;28;20137;-57
2023/07/12 02:00:07;;;;;;;13.03;7.27;;;;;;;;;;4998064;28;20281;-56
2023/07/12 02:02:32;;;;;;;8.38;7.18;;;;;;;;;;5005179;28;20054;-57
2023/07/12 02:04:57;;;;;;;7.57;6.00;;;;;;;;;;5002474;28;20038;-57
2023/07/12 02:07:23;;;;;;;8.87;6.87;;;;;;;;;;5008367;28;20273;-57
2023/07/12 02:10:06;;;;;;;9.30;6.95;;;;;;;;;;5007749;28;20384;-57
2023/07/12 02:12:31;;;;;;;10.30;6.68;;;;;;;;;;5005391;28;20034;-57
2023/07/12 02:14:56;;;;;;;9.47;6.90;;;;;;;;;;5011622;28;20040;-57
2023/07/12 02:17:21;;;;;;;10.67;7.07;;;;;;;;;;5025775;28;20116;-57
2023/07/12 02:19:47;;;;;;;11.47;7.20;;;;;;;;;;5024206;28;20060;-57
2023/07/12 02:22:12;;;;;;;10.63;6.87;;;;;;;;;;5019535;28;20043;-57
2023/07/12 02:24:37;;;;;;;9.57;6.97;;;;;;;;;;4992762;28;20033;-57
2023/07/12 02:27:02;;;;;;;9.37;6.60;;;;;;;;;;4988061;28;20023;-57
2023/07/12 02:29:28;;;;;;;9.50;6.97;;;;;;;;;;4970415;28;20281;-56
2023/07/12 02:31:54;;;;;;;9.27;6.87;;;;;;;;;;4987962;28;20101;-57
2023/07/12 02:34:19;;;;;;;9.05;6.93;;;;;;;;;;4984124;28;20054;-56
2023/07/12 02:36:44;;;;;;;11.27;6.93;;;;;;;;;;5005867;28;20054;-57
2023/07/12 02:39:09;;;;;;;11.03;7.67;;;;;;;;;;5005694;28;20026;-57
2023/07/12 02:41:35;;;;;;;9.67;7.37;;;;;;;;;;5004202;28;20384;-57
2023/07/12 02:44:00;;;;;;;12.00;7.57;;;;;;;;;;4977830;28;20032;-57
2023/07/12 02:46:26;;;;;;;10.77;7.53;;;;;;;;;;4998095;28;20441;-57
2023/07/12 02:48:51;;;;;;;9.10;7.50;;;;;;;;;;5001197;28;20025;-57
2023/07/12 02:51:16;;;;;;;9.20;7.33;;;;;;;;;;4998844;28;20017;-57
2023/07/12 02:53:41;;;;;;;11.23;7.22;;;;;;;;;;4993052;28;20862;-57
2023/07/12 02:56:07;;;;;;;12.20;7.60;;;;;;;;;;4999620;28;20019;-56
2023/07/12 02:58:32;;;;;;;10.38;7.20;;;;;;;;;;4991201;28;20353;-57
2023/07/12 03:00:58;;;;;;;9.10;7.50;;;;;;;;;;4995331;28;20022;-56
2023/07/12 03:03:23;;;;;;;14.85;8.63;;;;;;;;;;4992214;28;20060;-56
2023/07/12 03:05:48;;;;;;;9.63;7.57;;;;;;;;;;4994282;28;20026;-56
2023/07/12 03:08:13;;;;;;;12.37;7.90;;;;;;;;;;4991831;28;20274;-56
2023/07/12 03:10:39;;;;;;;11.70;8.60;;;;;;;;;;4994308;28;20013;-56
2023/07/12 03:13:04;;;;;;;10.02;7.88;;;;;;;;;;4994209;28;20028;-56
2023/07/12 03:15:29;;;;;;;10.03;7.83;;;;;;;;;;5024250;23;20049;-60
2023/07/12 03:17:54;;;;;;;10.07;8.13;;;;;;;;;;5026667;28;20017;-57
2023/07/12 03:20:20;;;;;;;10.00;7.83;;;;;;;;;;5039195;28;21043;-58
2023/07/12 03:22:45;;;;;;;10.60;7.80;;;;;;;;;;5039308;28;20329;-58
2023/07/12 03:25:10;;;;;;;11.97;7.53;;;;;;;;;;5033172;28;20259;-58
2023/07/12 03:27:36;;;;;;;10.70;7.43;;;;;;;;;;5037617;28;20082;-58
2023/07/12 03:30:01;;;;;;;10.95;8.00;;;;;;;;;;5041233;28;20037;-58
2023/07/12 03:32:26;;;;;;;10.07;8.00;;;;;;;;;;5033276;28;20021;-57
2023/07/12 03:34:52;;;;;;;8.73;7.13;;;;;;;;;;5028993;23;20311;-57
2023/07/12 03:37:17;;;;;;;12.40;8.07;;;;;;;;;;5039353;28;20274;-59
2023/07/12 03:39:43;;;;;;;9.98;7.28;;;;;;;;;;5048725;28;20095;-57
2023/07/12 03:42:09;;;;;;;11.57;7.85;;;;;;;;;;5035732;28;20051;-57
2023/07/12 03:44:34;;;;;;;9.27;7.73;;;;;;;;;;5036623;28;20024;-57
2023/07/12 03:46:59;;;;;;;11.07;8.30;;;;;;;;;;5034652;28;20806;-57
2023/07/12 03:49:24;;;;;;;11.20;7.97;;;;;;;;;;5040247;28;20480;-57
2023/07/12 03:51:50;;;;;;;12.13;8.50;;;;;;;;;;5036278;28;20384;-57
2023/07/12 03:54:15;;;;;;;9.87;7.10;;;;;;;;;;5034346;28;20480;-58
2023/07/12 03:56:40;;;;;;;10.60;8.43;;;;;;;;;;5038024;28;20265;-57
2023/07/12 03:59:06;;;;;;;10.20;8.07;;;;;;;;;;5038789;28;20052;-58
2023/07/12 04:01:32;;;;;;;10.50;8.40;;;;;;;;;;5039196;28;20375;-58
2023/07/12 04:03:57;;;;;;;10.63;8.17;;;;;;;;;;5033420;28;20100;-57
2023/07/12 04:06:22;;;;;;;11.15;8.15;;;;;;;;;;5033801;28;20260;-58
2023/07/12 04:08:48;;;;;;;11.17;8.37;;;;;;;;;;5033084;28;20021;-57
2023/07/12 04:11:24;;;;;;;10.10;8.40;;;;;;;;;;5011508;28;21340;-57
2023/07/12 04:13:49;;;;;;;12.80;8.88;;;;;;;;;;5028680;28;20033;-58
2023/07/12 04:16:15;;;;;;;14.68;9.60;;;;;;;;;;5036508;28;20045;-57
2023/07/12 04:18:41;;;;;;;14.85;8.48;;;;;;;;;;5037807;28;20025;-57
2023/07/12 04:21:06;;;;;;;13.47;8.23;;;;;;;;;;5021093;28;20495;-57
2023/07/12 04:23:31;;;;;;;10.67;8.47;;;;;;;;;;5033136;28;20297;-57
2023/07/12 04:26:00;;;;;;;11.68;8.85;;;;;;;;;;5017482;28;20041;-57
2023/07/12 04:28:25;;;;;;;10.35;8.35;;;;;;;;;;5037668;28;20487;-58
2023/07/12 04:30:50;;;;;;;12.93;9.05;;;;;;;;;;5035834;28;20051;-57
2023/07/12 04:33:16;;;;;;;11.60;8.40;;;;;;;;;;5032537;28;20033;-58
2023/07/12 04:35:41;;;;;;;11.07;8.68;;;;;;;;;;5034228;28;20045;-57
2023/07/12 04:38:06;;;;;;;11.33;8.47;;;;;;;;;;5036372;28;20499;-57
2023/07/12 04:40:31;;;;;;;11.10;8.60;;;;;;;;;;5046996;28;20374;-57
2023/07/12 04:42:57;;;;;;;13.27;8.90;;;;;;;;;;5036539;28;20330;-57
2023/07/12 04:45:22;;;;;;;11.27;8.23;;;;;;;;;;5030829;28;20791;-57
2023/07/12 04:47:47;;;;;;;10.20;8.47;;;;;;;;;;5015326;28;20044;-57
2023/07/12 04:50:12;;;;;;;10.27;8.23;;;;;;;;;;5025162;28;20272;-58
2023/07/12 04:52:38;;;;;;;9.97;8.27;;;;;;;;;;5034135;28;20032;-56
2023/07/12 04:55:04;;;;;;;10.85;8.57;;;;;;;;;;5040064;28;20037;-57
2023/07/12 04:57:29;;;;;;;10.73;9.18;;;;;;;;;;5035602;28;20551;-57
2023/07/12 04:59:55;;;;;;;17.00;13.55;;;;;;;;;;5038689;28;20121;-56
2023/07/12 05:02:20;;;;;;;15.50;11.30;;;;;;;;;;5037526;28;20056;-56
2023/07/12 05:04:45;;;;;;;17.87;11.67;;;;;;;;;;5038124;28;20802;-56
2023/07/12 05:07:10;;;;;;;12.82;10.52;;;;;;;;;;5020401;28;20703;-58
2023/07/12 05:09:36;;;;;;;12.03;9.43;;;;;;;;;;5039969;28;20013;-59
2023/07/12 05:12:01;;;;;;;11.35;9.43;;;;;;;;;;5038290;28;20033;-56
2023/07/12 05:14:26;;;;;;;14.63;9.60;;;;;;;;;;5040340;28;20021;-58
2023/07/12 05:16:52;;;;;;;12.93;9.70;;;;;;;;;;5038217;28;20412;-56
2023/07/12 05:19:17;;;;;;;12.07;9.13;;;;;;;;;;5040785;28;20443;-56
2023/07/12 05:21:43;;;;;;;12.30;8.80;;;;;;;;;;5032997;28;20432;-57
2023/07/12 05:24:08;;;;;;;12.23;8.33;;;;;;;;;;5036263;28;20329;-58
2023/07/12 05:26:33;;;;;;;12.50;9.30;;;;;;;;;;5038397;28;20271;-59
2023/07/12 05:28:58;;;;;;;11.77;8.50;;;;;;;;;;5036456;28;20283;-55
2023/07/12 05:31:24;;;;;;;12.37;8.80;;;;;;;;;;5038620;28;21244;-56
2023/07/12 05:33:49;;;;;;;12.10;9.07;;;;;;;;;;5040271;28;20339;-56
2023/07/12 05:36:14;;;;;;;13.43;9.73;;;;;;;;;;5039887;28;20037;-57
2023/07/12 05:38:39;;;;;;;13.40;9.00;;;;;;;;;;5009518;28;20083;-56
2023/07/12 05:41:05;;;;;;;13.37;8.83;;;;;;;;;;5042756;28;20048;-57
2023/07/12 05:43:30;;;;;;;12.50;9.02;;;;;;;;;;5037786;28;20767;-56
2023/07/12 05:45:56;;;;;;;12.03;9.53;;;;;;;;;;5038390;28;20489;-57
2023/07/12 05:48:22;;;;;;;11.60;8.57;;;;;;;;;;5009783;28;20743;-57
2023/07/12 05:50:49;;;;;;;11.57;9.10;;;;;;;;;;5024021;28;20213;-56
2023/07/12 05:53:14;;;;;;;13.65;9.13;;;;;;;;;;5044838;28;20507;-56
2023/07/12 05:55:39;;;;;;;11.90;8.67;;;;;;;;;;5042516;28;20487;-57
2023/07/12 05:58:05;;;;;;;12.40;9.37;;;;;;;;;;5043290;28;20654;-56
2023/07/12 06:00:30;;;;;;;13.52;8.95;;;;;;;;;;5016652;28;20302;-56
2023/07/12 06:02:56;;;;;;;11.40;8.25;;;;;;;;;;5043160;28;20042;-57
2023/07/12 06:05:22;;;;;;;13.13;8.82;;;;;;;;;;5042380;28;20469;-57
2023/07/12 06:07:47;;;;;;;10.77;8.25;;;;;;;;;;5024550;28;20029;-57
2023/07/12 06:10:15;;;;;;;11.13;8.00;;;;;;;;;;5022419;28;20040;-57
2023/07/12 06:12:40;;;;;;;11.90;8.45;;;;;;;;;;5043588;28;20330;-56
2023/07/12 06:15:06;;;;;;;12.10;8.48;;;;;;;;;;5021242;28;20037;-56
2023/07/12 06:17:31;;;;;;;14.85;8.50;;;;;;;;;;5025729;28;20473;-56
2023/07/12 06:19:56;;;;;;;14.40;8.67;;;;;;;;;;5042219;28;20125;-56
2023/07/12 06:22:22;;;;;;;12.05;8.15;;;;;;;;;;5046589;28;20555;-56
2023/07/12 06:24:47;;;;;;;13.30;8.20;;;;;;;;;;5075601;22;20045;-56
2023/07/12 06:27:13;;;;;;;12.70;8.35;;;;;;;;;;5030489;28;20332;-56
2023/07/12 06:29:39;;;;;;;11.02;8.38;;;;;;;;;;5033234;28;20033;-57
2023/07/12 06:32:04;;;;;;;12.00;8.05;;;;;;;;;;5033336;28;20040;-57
2023/07/12 06:34:30;;;;;;;12.02;8.43;;;;;;;;;;5032809;28;20040;-58
2023/07/12 06:36:55;;;;;;;10.73;8.07;;;;;;;;;;4995575;28;20045;-57
2023/07/12 06:39:20;;;;;;;14.00;8.57;;;;;;;;;;5033806;28;20292;-56
2023/07/12 06:41:46;;;;;;;10.17;8.03;;;;;;;;;;5032557;28;20168;-56
2023/07/12 06:44:11;;;;;;;12.70;7.90;;;;;;;;;;5053157;23;20144;-58
2023/07/12 06:46:36;;;;;;;9.07;8.00;;;;;;;;;;5029720;28;20037;-57
2023/07/12 06:49:01;;;;;;;11.50;7.90;;;;;;;;;;5034856;28;20294;-60
2023/07/12 06:51:27;;;;;;;13.00;8.57;;;;;;;;;;5034853;28;20045;-57
2023/07/12 06:53:52;;;;;;;15.68;8.05;;;;;;;;;;5018503;28;20818;-57
2023/07/12 06:56:17;;;;;;;11.60;8.10;;;;;;;;;;5036480;28;20044;-58
2023/07/12 06:58:43;;;;;;;11.27;7.80;;;;;;;;;;5037854;28;20296;-58
2023/07/12 07:01:08;;;;;;;11.93;7.72;;;;;;;;;;5037662;28;20091;-57
2023/07/12 07:03:33;;;;;;;13.40;8.40;;;;;;;;;;5019079;28;20053;-57
2023/07/12 07:05:59;;;;;;;14.77;9.57;;;;;;;;;;5017961;28;20041;-57
2023/07/12 07:08:24;;;;;;;14.15;8.43;;;;;;;;;;5037961;28;20056;-57
2023/07/12 07:10:50;;;;;;;12.13;8.00;;;;;;;;;;5038082;28;20043;-57
2023/07/12 07:13:15;;;;;;;11.68;7.60;;;;;;;;;;5037741;28;20527;-57
2023/07/12 07:15:40;;;;;;;10.13;7.43;;;;;;;;;;5036554;28;20033;-57
2023/07/12 07:18:07;;;;;;;11.90;7.33;;;;;;;;;;5037939;28;20845;-57
2023/07/12 07:20:33;;;;;;;11.43;7.68;;;;;;;;;;5037833;28;20588;-58
2023/07/12 07:22:59;;;;;;;10.82;7.18;;;;;;;;;;5038819;28;20080;-57
2023/07/12 07:25:25;;;;;;;10.77;7.00;;;;;;;;;;5036706;28;20493;-57
2023/07/12 07:27:51;;;;;;;9.82;7.40;;;;;;;;;;5038297;28;20040;-56
2023/07/12 07:30:16;;;;;;;10.35;7.32;;;;;;;;;;5037902;28;20033;-58
2023/07/12 07:32:41;;;;;;;10.17;7.17;;;;;;;;;;5036736;28;20761;-58
2023/07/12 07:35:07;;;;;;;8.95;6.90;;;;;;;;;;5029821;28;20509;-58
2023/07/12 07:37:32;;;;;;;10.88;8.27;;;;;;;;;;5019212;28;20044;-57
2023/07/12 07:39:57;;;;;;;10.05;7.90;;;;;;;;;;5036881;28;20552;-57
2023/07/12 07:42:23;;;;;;;12.03;8.47;;;;;;;;;;5036881;28;20048;-58
2023/07/12 07:44:48;;;;;;;12.50;8.40;;;;;;;;;;5037447;28;20037;-57
2023/07/12 07:47:14;;;;;;;9.52;7.65;;;;;;;;;;5032064;28;20619;-58
2023/07/12 07:49:39;;;;;;;12.95;8.07;;;;;;;;;;5036822;28;20056;-57
2023/07/12 07:52:04;;;;;;;10.63;7.90;;;;;;;;;;5039130;28;20501;-58
2023/07/12 07:54:30;;;;;;;10.38;7.85;;;;;;;;;;5041031;28;20302;-57
2023/07/12 07:56:55;;;;;;;11.13;7.75;;;;;;;;;;5033481;28;20037;-56
2023/07/12 07:59:21;;;;;;;10.60;8.27;;;;;;;;;;5012930;28;20052;-57
2023/07/12 08:01:48;;;;;;;12.93;8.45;;;;;;;;;;5044049;28;20049;-57
2023/07/12 08:04:13;;;;;;;10.02;7.75;;;;;;;;;;5037027;28;20069;-59
2023/07/12 08:06:39;;;;;;;10.10;7.80;;;;;;;;;;5033200;28;20053;-60
2023/07/12 08:09:06;;;;;;;10.18;7.40;;;;;;;;;;5024589;28;20044;-56
2023/07/12 08:11:31;;;;;;;11.80;7.88;;;;;;;;;;5007400;28;20037;-58
2023/07/12 08:13:56;;;;;;;12.13;7.90;;;;;;;;;;5016407;28;20068;-60
2023/07/12 08:16:24;;;;;;;10.93;8.20;;;;;;;;;;5021946;28;21133;-58
2023/07/12 08:18:49;;;;;;;10.85;7.85;;;;;;;;;;5044464;28;20108;-59
2023/07/12 08:21:15;;;;;;;11.57;7.87;;;;;;;;;;5043447;28;20120;-58
2023/07/12 08:23:40;;;;;;;10.27;7.70;;;;;;;;;;5044241;28;20303;-58
2023/07/12 08:26:05;;;;;;;9.93;7.50;;;;;;;;;;5045391;28;20033;-57
2023/07/12 08:28:30;;;;;;;11.33;8.13;;;;;;;;;;5044870;28;20045;-58
2023/07/12 08:30:56;;;;;;;10.83;7.40;;;;;;;;;;5044462;28;20830;-59
2023/07/12 08:33:21;;;;;;;12.27;8.30;;;;;;;;;;5044093;28;20552;-56
2023/07/12 08:35:46;;;;;;;10.47;8.07;;;;;;;;;;5034917;28;20511;-57
2023/07/12 08:38:11;;;;;;;13.10;8.05;;;;;;;;;;5041370;28;20290;-58
2023/07/12 08:40:39;;;;;;;12.13;7.70;;;;;;;;;;5043706;28;20032;-57
2023/07/12 08:43:07;;;;;;;11.98;8.43;;;;;;;;;;5017409;28;20051;-57
2023/07/12 08:45:33;;;;;;;12.88;8.32;;;;;;;;;;5021556;28;20114;-57
2023/07/12 08:48:00;;;;;;;12.27;8.43;;;;;;;;;;5040464;28;20087;-57
2023/07/12 08:50:27;;;;;;;13.00;8.77;;;;;;;;;;5023354;28;20490;-58
2023/07/12 08:52:52;;;;;;;11.60;8.18;;;;;;;;;;5018339;28;20116;-58
2023/07/12 08:55:18;;;;;;;10.70;8.30;;;;;;;;;;5033732;28;20314;-58
2023/07/12 08:57:44;;;;;;;11.82;8.10;;;;;;;;;;5024288;28;20275;-57
2023/07/12 09:00:11;;;;;;;10.43;8.40;;;;;;;;;;5041484;28;20033;-57
2023/07/12 09:02:36;;;;;;;12.10;8.25;;;;;;;;;;5043522;28;20040;-58
2023/07/12 09:05:12;;;;;;;11.82;8.23;;;;;;;;;;5026331;28;20209;-57
2023/07/12 09:07:37;;;;;;;10.82;8.32;;;;;;;;;;5034435;28;20048;-58
2023/07/12 09:10:03;;;;;;;10.57;8.02;;;;;;;;;;5005560;28;20033;-59
2023/07/12 09:12:37;;;;;;;9.93;8.40;;;;;;;;;;5007983;28;20036;-57
2023/07/12 09:15:03;;;;;;;10.18;8.05;;;;;;;;;;5025723;28;20073;-57
2023/07/12 09:17:31;;;;;;;10.93;8.13;;;;;;;;;;5034871;28;20040;-58
2023/07/12 09:19:57;;;;;;;11.52;8.55;;;;;;;;;;5046718;28;20118;-57
2023/07/12 09:22:23;;;;;;;11.98;8.10;;;;;;;;;;5047236;28;20049;-60
2023/07/12 09:24:52;;;;;;;11.02;8.50;;;;;;;;;;5029841;28;20126;-58
2023/07/12 09:27:18;;;;;;;10.30;7.82;;;;;;;;;;5041950;28;20042;-58
2023/07/12 09:29:44;;;;;;;11.70;8.13;;;;;;;;;;5027475;28;20045;-57
2023/07/12 09:32:15;;;;;;;11.55;8.43;;;;;;;;;;5027955;28;20616;-57
2023/07/12 09:34:40;;;;;;;9.88;7.82;;;;;;;;;;5028769;28;20033;-57
2023/07/12 09:37:13;;;;;;;10.93;8.17;;;;;;;;;;5044910;28;20133;-58
2023/07/12 09:39:38;;;;;;;10.45;8.00;;;;;;;;;;5009737;28;20272;-58
2023/07/12 09:42:03;;;;;;;10.50;7.37;;;;;;;;;;5027223;28;20094;-57
2023/07/12 09:44:30;;;;;;;10.27;8.15;;;;;;;;;;5027591;28;20351;-58
2023/07/12 09:46:58;;;;;;;9.40;8.00;;;;;;;;;;5028302;28;20022;-58
2023/07/12 09:49:24;;;;;;;11.27;7.85;;;;;;;;;;5046741;28;20064;-58
2023/07/12 09:52:08;;;;;;;11.50;8.68;;;;;;;;;;5029200;28;20060;-58
2023/07/12 09:54:39;;;;;;;8.65;7.45;;;;;;;;;;5029603;28;20140;-56
2023/07/12 09:57:11;;;;;;;13.18;8.43;;;;;;;;;;5045911;28;20025;-58
2023/07/12 09:59:36;;;;;;;9.82;7.40;;;;;;;;;;5027039;28;20112;-59
2023/07/12 10:02:14;;;;;;;11.97;7.63;;;;;;;;;;5027316;28;20561;-58
2023/07/12 10:04:41;;;;;;;8.70;7.15;;;;;;;;;;5010186;28;20108;-57
2023/07/12 10:07:12;;;;;;;9.85;7.88;;;;;;;;;;5009491;28;20029;-59
2023/07/12 10:09:37;;;;;;;8.98;7.80;;;;;;;;;;5009148;28;20037;-58
2023/07/12 10:12:09;;;;;;;8.73;7.57;;;;;;;;;;5026452;28;20036;-58
2023/07/12 10:14:39;;;;;;;9.90;6.90;;;;;;;;;;5027155;28;20041;-58
2023/07/12 10:17:04;;;;;;;10.23;7.25;;;;;;;;;;5008513;28;20498;-58
2023/07/12 10:19:31;;;;;;;10.73;7.97;;;;;;;;;;5046371;28;20044;-60
2023/07/12 10:21:57;;;;;;;9.38;7.32;;;;;;;;;;5046214;28;20047;-57
2023/07/12 10:24:24;;;;;;;9.73;6.85;;;;;;;;;;5046959;28;20145;-58
2023/07/12 10:26:49;;;;;;;10.57;6.97;;;;;;;;;;5029139;28;20029;-59
2023/07/12 10:29:26;;;;;;;9.27;6.60;;;;;;;;;;5028056;28;20052;-59
2023/07/12 10:31:55;;;;;;;8.93;6.32;;;;;;;;;;5046574;28;20037;-59
2023/07/12 10:34:22;;;;;;;6.97;6.00;;;;;;;;;;5028938;28;20531;-58
2023/07/12 10:36:52;;;;;;;8.15;6.32;;;;;;;;;;5047068;28;20033;-58
2023/07/12 10:39:18;;;;;;;7.47;6.10;;;;;;;;;;5029725;28;20478;-57
2023/07/12 10:41:47;;;;;;;9.07;6.00;;;;;;;;;;5008837;28;20025;-58
2023/07/12 10:44:19;;;;;;;8.68;6.20;;;;;;;;;;5026705;28;20550;-57
2023/07/12 10:46:46;;;;;;;9.43;5.82;;;;;;;;;;5027511;28;20045;-60
2023/07/12 10:49:15;;;;;;;8.77;6.13;;;;;;;;;;5046708;28;20048;-58
2023/07/12 10:51:41;;;;;;;7.95;6.07;;;;;;;;;;5047166;28;20040;-57
2023/07/12 10:54:35;;;;;;;8.88;5.95;;;;;;;;;;5046701;28;20441;-58
2023/07/12 10:57:04;;;;;;;7.97;6.00;;;;;;;;;;4957744;28;20060;-57
2023/07/12 10:59:32;;;;;;;9.97;6.70;;;;;;;;;;5045686;28;20063;-57
2023/07/12 11:02:18;;;;;;;7.38;5.80;;;;;;;;;;5047127;28;20295;-58
2023/07/12 11:04:46;;;;;;;7.63;6.13;;;;;;;;;;5029326;28;20045;-58
2023/07/12 11:07:12;;;;;;;9.93;5.97;;;;;;;;;;5038540;28;20505;-60
2023/07/12 11:09:43;;;;;;;7.30;5.77;;;;;;;;;;5044702;28;20072;-58
2023/07/12 11:12:09;;;;;;;8.20;5.78;;;;;;;;;;5045535;28;20059;-56
2023/07/12 11:14:37;;;;;;;8.38;5.65;;;;;;;;;;5045909;28;20497;-58
2023/07/12 11:17:03;;;;;;;8.63;5.65;;;;;;;;;;5028123;28;20033;-58
2023/07/12 11:19:32;;;;;;;8.00;5.72;;;;;;;;;;5027495;28;20057;-57
2023/07/12 11:21:58;;;;;;;8.52;5.90;;;;;;;;;;5026509;28;20057;-59
2023/07/12 11:24:23;;;;;;;7.03;5.15;;;;;;;;;;5028282;28;20032;-58
2023/07/12 11:26:58;;;;;;;8.10;5.50;;;;;;;;;;5046237;28;20469;-58
2023/07/12 11:29:24;;;;;;;9.55;6.63;;;;;;;;;;5043099;28;20623;-57
2023/07/12 11:31:49;;;;;;;7.85;5.65;;;;;;;;;;5045596;28;20102;-57
2023/07/12 11:34:16;;;;;;;8.68;5.82;;;;;;;;;;5039526;28;20029;-60
2023/07/12 11:36:41;;;;;;;9.05;6.00;;;;;;;;;;5020836;28;20075;-60
2023/07/12 11:39:18;;;;;;;9.43;5.57;;;;;;;;;;5024738;28;20404;-58
2023/07/12 11:41:56;;;;;;;7.85;5.95;;;;;;;;;;5043781;28;20397;-59
2023/07/12 11:44:21;;;;;;;9.07;5.50;;;;;;;;;;5043634;28;20458;-59
2023/07/12 11:46:47;;;;;;;8.60;5.85;;;;;;;;;;5020646;28;20056;-60
2023/07/12 11:49:13;;;;;;;8.35;5.80;;;;;;;;;;5025392;28;20119;-60
2023/07/12 11:51:39;;;;;;;8.63;5.75;;;;;;;;;;5044578;28;20029;-59
2023/07/12 11:54:21;;;;;;;7.07;5.65;;;;;;;;;;5026009;28;20090;-58
2023/07/12 11:56:47;;;;;;;9.05;5.80;;;;;;;;;;5045316;28;20032;-59
2023/07/12 11:59:13;;;;;;;8.82;5.63;;;;;;;;;;5062883;23;22076;-59
2023/07/12 12:01:38;;;;;;;7.97;5.32;;;;;;;;;;5025106;28;20029;-58
2023/07/12 12:04:04;;;;;;;7.50;5.13;;;;;;;;;;5046896;28;20590;-58
2023/07/12 12:06:29;;;;;;;8.40;6.05;;;;;;;;;;5046665;28;20047;-58
2023/07/12 12:08:54;;;;;;;7.17;5.20;;;;;;;;;;5043123;28;20137;-59
2023/07/12 12:11:21;;;;;;;6.03;5.10;;;;;;;;;;5030453;28;20112;-59
2023/07/12 12:13:48;;;;;;;9.23;5.70;;;;;;;;;;5044569;28;20069;-59
2023/07/12 12:16:16;;;;;;;6.07;5.10;;;;;;;;;;5024720;28;20127;-59
2023/07/12 12:18:48;;;;;;;6.63;5.47;;;;;;;;;;5057058;23;20053;-57
2023/07/12 12:21:14;;;;;;;8.43;5.88;;;;;;;;;;5043587;28;20041;-57
2023/07/12 12:23:41;;;;;;;8.07;6.18;;;;;;;;;;5025744;28;20116;-57
2023/07/12 12:26:26;;;;;;;7.55;5.90;;;;;;;;;;5026176;28;20120;-57
2023/07/12 12:28:52;;;;;;;7.38;5.68;;;;;;;;;;5039147;28;20149;-57
2023/07/12 12:31:19;;;;;;;8.48;5.28;;;;;;;;;;5026157;28;20037;-57
2023/07/12 12:33:45;;;;;;;7.63;5.18;;;;;;;;;;5026122;28;20029;-57
2023/07/12 12:36:20;;;;;;;6.38;5.53;;;;;;;;;;5044497;28;20013;-58
2023/07/12 12:38:46;;;;;;;7.93;5.18;;;;;;;;;;5042637;28;20045;-57
2023/07/12 12:41:13;;;;;;;6.78;5.43;;;;;;;;;;5026178;28;20029;-58
2023/07/12 12:43:53;;;;;;;7.72;5.90;;;;;;;;;;5042841;28;20118;-58
2023/07/12 12:46:18;;;;;;;7.07;5.63;;;;;;;;;;5047906;28;20444;-57
2023/07/12 12:48:44;;;;;;;6.70;5.67;;;;;;;;;;5042408;28;20049;-57
2023/07/12 12:51:09;;;;;;;7.17;5.40;;;;;;;;;;5040921;28;20496;-58
2023/07/12 12:53:34;;;;;;;7.93;5.53;;;;;;;;;;5022162;28;20556;-57
2023/07/12 12:55:59;;;;;;;7.80;5.63;;;;;;;;;;5044362;28;20275;-57
2023/07/12 12:58:25;;;;;;;7.60;5.63;;;;;;;;;;5043895;28;20040;-58
2023/07/12 13:00:51;;;;;;;7.30;5.37;;;;;;;;;;5039944;28;20132;-57
2023/07/12 13:03:16;;;;;;;9.40;5.97;;;;;;;;;;5025763;28;20048;-57
2023/07/12 13:05:42;;;;;;;8.70;5.83;;;;;;;;;;5061998;28;20036;-57
2023/07/12 13:08:12;;;;;;;6.67;5.67;;;;;;;;;;5042390;28;20071;-57
2023/07/12 13:10:37;;;;;;;7.82;5.63;;;;;;;;;;5034262;28;20032;-58
2023/07/12 13:13:04;;;;;;;7.27;5.90;;;;;;;;;;5063861;28;20086;-58
2023/07/12 13:15:29;;;;;;;7.57;6.07;;;;;;;;;;5042909;28;20287;-58
2023/07/12 13:17:54;;;;;;;8.27;6.17;;;;;;;;;;5037996;28;20528;-58
2023/07/12 13:20:20;;;;;;;6.17;5.57;;;;;;;;;;5043636;28;20492;-58
2023/07/12 13:22:46;;;;;;;8.10;5.97;;;;;;;;;;5042939;28;20300;-57
2023/07/12 13:25:12;;;;;;;9.27;5.90;;;;;;;;;;5025784;28;20103;-58
2023/07/12 13:27:40;;;;;;;8.10;5.68;;;;;;;;;;5041517;28;20039;-59
2023/07/12 13:30:09;;;;;;;6.93;5.60;;;;;;;;;;5043955;28;20029;-58
2023/07/12 13:32:34;;;;;;;6.15;5.55;;;;;;;;;;5048403;28;20040;-59
2023/07/12 13:35:00;;;;;;;7.97;5.97;;;;;;;;;;5042319;28;20159;-59
2023/07/12 13:37:26;;;;;;;8.27;5.87;;;;;;;;;;5039958;28;20292;-58
2023/07/12 13:39:52;;;;;;;6.35;5.47;;;;;;;;;;5012029;28;20025;-58
2023/07/12 13:42:17;;;;;;;7.13;5.60;;;;;;;;;;5044458;28;20068;-58
2023/07/12 13:44:43;;;;;;;7.93;5.80;;;;;;;;;;5042294;28;20052;-59
2023/07/12 13:47:18;;;;;;;6.75;5.57;;;;;;;;;;5042175;28;20046;-58
2023/07/12 13:49:44;;;;;;;8.35;5.80;;;;;;;;;;5028544;28;20033;-59
2023/07/12 13:52:19;;;;;;;6.28;5.10;;;;;;;;;;5025897;28;20045;-59
2023/07/12 13:54:44;;;;;;;6.45;5.28;;;;;;;;;;5043238;28;20410;-59
2023/07/12 13:57:12;;;;;;;6.65;5.18;;;;;;;;;;5044900;28;20141;-59
2023/07/12 13:59:39;;;;;;;5.80;4.97;;;;;;;;;;5030728;28;20501;-59
2023/07/12 14:02:23;;;;;;;6.47;4.57;;;;;;;;;;5054773;28;20047;-59
2023/07/12 14:04:49;;;;;;;6.15;4.30;;;;;;;;;;5030377;28;20045;-58
2023/07/12 14:07:15;;;;;;;5.78;4.68;;;;;;;;;;5050783;28;20098;-59
2023/07/12 14:09:44;;;;;;;5.55;4.30;;;;;;;;;;5049238;28;20037;-57
2023/07/12 14:12:13;;;;;;;4.88;4.05;;;;;;;;;;5043631;28;20090;-57
2023/07/12 14:14:38;;;;;;;5.50;4.47;;;;;;;;;;5045479;28;20440;-57
2023/07/12 14:17:04;;;;;;;5.17;3.93;;;;;;;;;;5048498;28;20120;-58
2023/07/12 14:19:29;;;;;;;7.68;4.45;;;;;;;;;;5028378;28;20033;-57
2023/07/12 14:21:55;;;;;;;10.47;4.70;;;;;;;;;;5048445;28;20044;-57
2023/07/12 14:24:20;;;;;;;7.87;4.00;;;;;;;;;;5064816;28;20039;-57
2023/07/12 14:26:45;;;;;;;7.03;4.20;;;;;;;;;;5049418;28;20051;-57
2023/07/12 14:29:10;;;;;;;7.17;4.30;;;;;;;;;;5043628;28;20446;-57
2023/07/12 14:31:37;;;;;;;5.57;3.93;;;;;;;;;;5030543;28;20398;-57